createdAt,value
2018-12-23T00:05:50.229Z,98802.02
2018-12-23T00:08:23.606Z,98797.80
2018-12-23T00:10:57.262Z,98803.45
2018-12-23T00:16:10.024Z,98798.56
2018-12-23T00:18:54.043Z,98795.11
2018-12-23T00:21:32.499Z,98799.98
2018-12-23T00:24:07.898Z,98804.55
2018-12-23T00:26:53.443Z,98805.55
2018-12-23T00:32:15.791Z,98818.52
2018-12-23T00:34:51.411Z,98824.27
2018-12-23T00:37:32.773Z,98830.59
2018-12-23T00:40:24.183Z,98835.34
2018-12-23T00:48:45.237Z,98834.78
2018-12-23T00:51:26.328Z,98843.05
2018-12-23T00:54:04.933Z,98832.30
2018-12-23T00:56:45.097Z,98834.86
2018-12-23T00:59:23.038Z,98845.70
2018-12-23T01:04:40.947Z,98857.02
2018-12-23T01:07:16.614Z,98845.25
2018-12-23T01:09:54.151Z,98848.06
2018-12-23T01:12:33.426Z,98848.19
2018-12-23T01:15:16.395Z,98851.41
2018-12-23T01:17:51.789Z,98859.63
2018-12-23T01:20:26.505Z,98854.84
2018-12-23T01:25:52.158Z,98860.70
2018-12-23T01:28:36.471Z,98860.95
2018-12-23T01:31:12.849Z,98862.94
2018-12-23T01:33:53.604Z,98864.07
2018-12-23T01:36:30.604Z,98866.33
2018-12-23T01:39:14.059Z,98870.05
2018-12-23T01:41:55.866Z,98869.14
2018-12-23T01:44:31.756Z,98875.53
2018-12-23T01:47:06.877Z,98876.03
2018-12-23T01:49:55.400Z,98879.80
2018-12-23T01:58:28.599Z,98889.66
2018-12-23T02:04:00.872Z,98880.41
2018-12-23T02:12:30.848Z,98876.03
2018-12-23T02:18:15.193Z,98878.30
2018-12-23T02:20:57.871Z,98873.16
2018-12-23T02:23:34.118Z,98873.77
2018-12-23T02:26:11.310Z,98882.39
2018-12-23T02:31:40.292Z,98880.43
2018-12-23T02:34:17.157Z,98887.28
2018-12-23T02:36:53.796Z,98884.91
2018-12-23T02:39:42.139Z,98882.30
2018-12-23T02:47:49.992Z,98879.81
2018-12-23T02:50:31.770Z,98883.20
2018-12-23T02:53:08.423Z,98889.08
2018-12-23T02:55:44.465Z,98891.86
2018-12-23T02:58:22.420Z,98885.68
2018-12-23T03:01:08.050Z,98884.83
2018-12-23T03:03:55.270Z,98888.69
2018-12-23T03:09:37.826Z,98881.77
2018-12-23T03:12:23.239Z,98874.70
2018-12-23T03:15:14.551Z,98881.35
2018-12-23T03:20:52.547Z,98888.46
2018-12-23T03:23:28.369Z,98871.75
2018-12-23T03:26:09.218Z,98870.16
2018-12-23T03:28:52.336Z,98865.63
2018-12-23T03:31:33.757Z,98874.93
2018-12-23T03:34:21.432Z,98877.53
2018-12-23T03:37:00.687Z,98865.06
2018-12-23T03:42:20.337Z,98870.95
2018-12-23T03:45:08.415Z,98871.86
2018-12-23T03:50:53.984Z,98871.43
2018-12-23T03:53:35.226Z,98875.94
2018-12-23T03:56:26.360Z,98867.68
2018-12-23T03:59:14.894Z,98877.50
2018-12-23T04:07:42.710Z,98880.92
2018-12-23T04:10:25.848Z,98873.40
2018-12-23T04:13:03.625Z,98878.65
2018-12-23T04:15:47.265Z,98877.34
2018-12-23T04:18:35.378Z,98883.02
2018-12-23T04:27:29.583Z,98886.97
2018-12-23T04:30:07.387Z,98874.95
2018-12-23T04:35:42.952Z,98883.14
2018-12-23T04:38:31.586Z,98879.17
2018-12-23T04:44:07.824Z,98884.45
2018-12-23T04:46:58.177Z,98880.14
2018-12-23T04:49:38.097Z,98874.08
2018-12-23T06:08:19.470Z,98896.39
2018-12-23T06:32:12.818Z,98884.58
2018-12-23T06:47:03.962Z,98893.11
2018-12-23T07:04:35.237Z,98919.28
2018-12-23T07:07:18.650Z,98921.09
2018-12-23T07:12:41.657Z,98929.14
2018-12-23T07:15:24.413Z,98936.86
2018-12-23T07:17:59.390Z,98935.77
2018-12-23T07:20:34.256Z,98928.48
2018-12-23T07:23:11.085Z,98930.12
2018-12-23T07:50:15.515Z,98919.02
2018-12-23T07:52:51.970Z,98917.41
2018-12-23T07:55:34.075Z,98912.62
2018-12-23T08:07:25.186Z,98907.11
2018-12-23T08:10:00.630Z,98916.41
2018-12-23T08:15:47.297Z,98914.19
2018-12-23T08:18:36.914Z,98911.48
2018-12-23T08:21:09.225Z,98917.67
2018-12-23T08:23:46.877Z,98912.36
2018-12-23T08:26:20.377Z,98914.75
2018-12-23T08:29:03.303Z,98912.38
2018-12-23T08:47:12.210Z,98914.77
2018-12-23T08:53:02.510Z,98915.41
2018-12-23T08:55:47.689Z,98914.20
2018-12-23T08:58:24.071Z,98903.61
2018-12-23T09:07:09.267Z,98915.61
2018-12-23T09:09:43.998Z,98910.28
2018-12-23T09:12:20.770Z,98910.23
2018-12-23T09:14:56.844Z,98904.64
2018-12-23T09:17:34.854Z,98900.28
2018-12-23T09:20:11.751Z,98897.44
2018-12-23T09:22:55.650Z,98897.57
2018-12-23T09:25:38.608Z,98894.84
2018-12-23T09:37:33.939Z,98876.97
2018-12-23T09:58:44.269Z,98843.13
2018-12-23T10:21:58.533Z,98818.59
2018-12-23T10:34:22.421Z,98809.88
2018-12-23T10:36:59.038Z,98809.33
2018-12-23T10:39:31.145Z,98801.34
2018-12-23T10:42:10.447Z,98798.52
2018-12-23T11:17:11.388Z,98750.16
2018-12-23T11:29:25.414Z,98729.55
2018-12-23T11:32:15.937Z,98726.39
2018-12-23T11:34:49.520Z,98719.41
2018-12-23T11:37:35.078Z,98720.31
2018-12-23T11:45:53.360Z,98673.97
2018-12-23T11:48:43.990Z,98706.02
2018-12-23T12:02:23.881Z,98673.64
2018-12-23T12:05:15.737Z,98665.14
2018-12-23T12:20:28.748Z,98627.60
2018-12-23T12:23:19.646Z,98620.91
2018-12-23T12:26:22.921Z,98617.83
2018-12-23T12:32:16.968Z,98608.08
2018-12-23T12:34:49.630Z,98603.63
2018-12-23T12:40:22.129Z,98590.31
2018-12-23T12:46:09.719Z,98582.48
2018-12-23T12:48:42.415Z,98582.27
2018-12-23T12:51:21.887Z,98573.75
2018-12-23T12:53:54.894Z,98570.98
2018-12-23T12:56:44.360Z,98563.53
2018-12-23T12:59:36.260Z,98561.75
2018-12-23T13:02:09.571Z,98549.33
2018-12-23T13:04:42.790Z,98547.73
2018-12-23T13:07:21.269Z,98538.27
2018-12-23T13:09:53.267Z,98532.98
2018-12-23T13:12:25.843Z,98528.06
2018-12-23T13:15:30.661Z,98526.86
2018-12-23T13:25:24.250Z,98509.23
2018-12-23T13:27:58.972Z,98498.19
2018-12-23T13:30:49.931Z,98499.21
2018-12-23T13:45:33.230Z,98457.92
2018-12-23T13:48:49.382Z,98448.58
2018-12-23T14:21:39.217Z,98355.16
2018-12-23T14:27:03.501Z,98332.85
2018-12-23T14:29:35.884Z,98326.55
2018-12-23T14:32:08.562Z,98316.27
2018-12-23T14:34:40.794Z,98306.63
2018-12-23T14:37:13.098Z,98298.11
2018-12-23T14:40:05.092Z,98291.59
2018-12-23T14:42:58.025Z,98282.17
2018-12-23T14:45:36.072Z,98281.88
2018-12-23T14:48:29.642Z,98271.96
2018-12-23T14:51:02.451Z,98261.33
2018-12-23T14:56:50.100Z,98256.11
2018-12-23T14:59:40.774Z,98252.36
2018-12-23T15:02:42.901Z,98248.91
2018-12-23T15:05:26.473Z,98237.24
2018-12-23T15:07:58.888Z,98225.67
2018-12-23T15:10:49.780Z,98228.91
2018-12-23T15:16:43.179Z,98224.30
2018-12-23T15:19:15.306Z,98215.88
2018-12-23T15:21:48.996Z,98213.64
2018-12-23T15:24:40.570Z,98203.61
2018-12-23T15:27:13.252Z,98204.21
2018-12-23T15:29:45.200Z,98197.09
2018-12-23T15:32:35.841Z,98192.34
2018-12-23T15:38:04.106Z,98181.38
2018-12-23T15:40:46.623Z,98179.02
2018-12-23T15:43:20.072Z,98176.02
2018-12-23T15:45:52.173Z,98165.14
2018-12-23T15:48:45.941Z,98164.83
2018-12-23T15:51:21.497Z,98154.00
2018-12-23T15:55:01.993Z,98148.98
2018-12-23T15:57:40.481Z,98147.28
2018-12-23T16:09:51.064Z,98138.51
2018-12-23T16:12:26.393Z,98136.22
2018-12-23T16:15:22.208Z,98123.39
2018-12-23T16:21:42.452Z,98115.38
2018-12-23T16:24:32.301Z,98115.74
2018-12-23T16:27:33.473Z,98116.06
2018-12-23T16:30:07.861Z,98112.55
2018-12-23T16:32:41.890Z,98104.11
2018-12-23T16:35:32.552Z,98107.46
2018-12-23T16:38:23.590Z,98101.30
2018-12-23T16:40:57.359Z,98093.14
2018-12-23T16:43:31.663Z,98097.66
2018-12-23T16:46:03.750Z,98089.84
2018-12-23T16:48:54.829Z,98090.20
2018-12-23T16:52:04.322Z,98089.86
2018-12-23T16:54:38.368Z,98080.52
2018-12-23T16:57:30.933Z,98082.25
2018-12-23T17:00:02.636Z,98082.38
2018-12-23T17:02:54.414Z,98080.37
2018-12-23T17:05:31.739Z,98073.05
2018-12-23T17:08:24.161Z,98066.84
2018-12-23T17:14:30.618Z,98057.91
2018-12-23T17:17:31.902Z,98070.43
2018-12-23T17:24:12.020Z,98061.52
2018-12-23T17:30:08.315Z,98064.30
2018-12-23T17:35:46.693Z,98069.71
2018-12-23T17:38:42.600Z,98071.59
2018-12-23T17:41:25.623Z,98068.81
2018-12-23T17:44:05.362Z,98069.81
2018-12-23T17:46:37.751Z,98079.44
2018-12-23T17:49:30.230Z,98069.16
2018-12-23T17:52:14.031Z,98072.44
2018-12-23T17:54:48.842Z,98070.56
2018-12-23T17:57:24.252Z,98077.69
2018-12-23T18:00:16.239Z,98074.03
2018-12-23T18:05:29.896Z,98075.06
2018-12-23T18:08:30.090Z,98059.09
2018-12-23T18:11:04.656Z,98066.55
2018-12-23T18:13:40.492Z,98056.27
2018-12-23T18:22:17.191Z,98061.31
2018-12-23T18:28:25.699Z,98051.59
2018-12-23T18:33:39.674Z,98062.78
2018-12-23T18:39:16.193Z,98061.40
2018-12-23T18:45:17.739Z,98066.17
2018-12-23T18:48:08.618Z,98057.17
2018-12-23T19:07:24.864Z,98073.47
2018-12-23T19:42:41.571Z,98060.18
2018-12-23T19:46:00.093Z,98066.34
2018-12-23T19:52:42.616Z,98069.99
2018-12-23T19:55:52.453Z,98075.17
2018-12-23T19:59:02.470Z,98076.02
2018-12-23T20:02:17.089Z,98070.78
2018-12-23T20:05:31.755Z,98073.00
2018-12-23T20:08:31.064Z,98064.09
2018-12-23T20:14:49.162Z,98068.67
2018-12-23T20:18:03.946Z,98074.90
2018-12-23T20:21:26.177Z,98062.97
2018-12-23T20:24:33.569Z,98056.87
2018-12-23T20:27:54.322Z,98051.06
2018-12-23T20:31:16.226Z,98047.97
2018-12-23T20:40:32.474Z,98042.09
2018-12-23T20:49:44.406Z,98031.78
2018-12-23T20:56:40.425Z,98024.09
2018-12-23T21:00:04.085Z,98023.42
2018-12-23T21:10:27.277Z,98024.20
2018-12-23T21:13:16.351Z,98032.11
2018-12-23T21:16:08.703Z,98030.38
2018-12-23T21:19:22.091Z,98021.84
2018-12-23T21:22:40.643Z,98014.74
2018-12-23T21:25:54.132Z,98011.40
2018-12-23T21:29:03.391Z,98013.59
2018-12-23T21:31:52.108Z,98004.47
2018-12-23T21:34:55.289Z,97994.36
2018-12-23T21:37:58.999Z,97994.40
2018-12-23T21:41:04.679Z,98009.20
2018-12-23T21:44:16.840Z,98006.66
2018-12-23T21:47:32.610Z,98003.58
2018-12-23T21:50:28.941Z,98003.95
2018-12-23T22:00:29.981Z,97998.11
2018-12-23T22:03:39.662Z,97990.03
2018-12-23T22:06:51.909Z,97847.78
2018-12-23T22:10:02.976Z,98001.13
2018-12-23T22:13:12.158Z,97999.44
2018-12-23T22:19:25.389Z,97996.36
2018-12-23T22:22:16.349Z,97912.58
2018-12-23T22:25:09.387Z,97991.12
2018-12-23T22:28:01.514Z,97988.61
2018-12-23T22:30:56.773Z,97981.53
2018-12-23T22:34:10.647Z,97967.12
2018-12-23T22:37:01.961Z,97960.78
2018-12-23T22:39:35.101Z,97968.64
2018-12-23T22:45:35.230Z,97962.18
2018-12-23T22:48:28.652Z,97955.80
2018-12-23T22:51:19.784Z,97953.30
2018-12-23T22:53:51.938Z,97898.53
2018-12-23T22:56:45.480Z,97959.73
2018-12-23T23:02:46.572Z,97952.58
2018-12-23T23:05:19.473Z,97947.77
2018-12-23T23:07:53.105Z,97951.45
2018-12-23T23:10:43.423Z,97958.00
2018-12-23T23:13:18.726Z,97961.25
2018-12-23T23:16:11.136Z,97951.95
2018-12-23T23:19:02.709Z,97945.98
2018-12-23T23:21:42.044Z,97945.52
2018-12-23T23:24:53.902Z,97933.39
2018-12-23T23:27:26.792Z,97930.42
2018-12-23T23:30:05.644Z,97920.75
2018-12-23T23:32:37.498Z,97933.05
2018-12-23T23:35:11.485Z,97923.24
2018-12-23T23:37:43.780Z,97921.72
2018-12-23T23:40:15.781Z,97919.78
2018-12-23T23:42:47.499Z,97921.72
2018-12-23T23:45:19.703Z,97907.72
2018-12-23T23:48:11.592Z,97895.16
2018-12-23T23:51:04.308Z,97884.47
2018-12-23T23:53:36.363Z,97878.12
2018-12-23T23:56:28.482Z,97875.69
2018-12-23T23:59:19.291Z,97867.16
